sensor_id;sensor_type;location;lat;lon;timestamp;temperature;humidity
11965;DHT22;6042;41.326;19.826;2023-04-25T00:00:02;14.20;99.90
11965;DHT22;6042;41.326;19.826;2023-04-25T00:02:38;14.20;99.90
11965;DHT22;6042;41.326;19.826;2023-04-25T00:05:07;14.20;99.90
11965;DHT22;6042;41.326;19.826;2023-04-25T00:07:36;14.00;99.90
11965;DHT22;6042;41.326;19.826;2023-04-25T00:10:05;13.90;99.90
11965;DHT22;6042;41.326;19.826;2023-04-25T00:12:34;13.90;99.90
11965;DHT22;6042;41.326;19.826;2023-04-25T00:15:05;13.90;99.90
11965;DHT22;6042;41.326;19.826;2023-04-25T00:17:34;13.70;99.90
11965;DHT22;6042;41.326;19.826;2023-04-25T00:20:03;13.60;99.90
11965;DHT22;6042;41.326;19.826;2023-04-25T00:22:36;13.80;99.90
11965;DHT22;6042;41.326;19.826;2023-04-25T00:25:05;14.00;99.90
11965;DHT22;6042;41.326;19.826;2023-04-25T00:27:34;14.30;99.90
11965;DHT22;6042;41.326;19.826;2023-04-25T00:30:05;14.40;99.90
11965;DHT22;6042;41.326;19.826;2023-04-25T00:32:33;14.50;99.90
11965;DHT22;6042;41.326;19.826;2023-04-25T00:35:02;14.50;99.90
11965;DHT22;6042;41.326;19.826;2023-04-25T00:37:31;14.60;99.90
11965;DHT22;6042;41.326;19.826;2023-04-25T00:39:59;14.60;99.90
11965;DHT22;6042;41.326;19.826;2023-04-25T00:42:28;14.70;99.90
11965;DHT22;6042;41.326;19.826;2023-04-25T00:44:58;14.80;99.90
11965;DHT22;6042;41.326;19.826;2023-04-25T00:47:29;14.80;99.90
11965;DHT22;6042;41.326;19.826;2023-04-25T00:49:57;14.80;99.90
11965;DHT22;6042;41.326;19.826;2023-04-25T00:52:25;14.90;99.90
11965;DHT22;6042;41.326;19.826;2023-04-25T00:54:54;14.80;99.90
11965;DHT22;6042;41.326;19.826;2023-04-25T00:57:23;14.80;99.90
11965;DHT22;6042;41.326;19.826;2023-04-25T00:59:51;14.80;99.90
11965;DHT22;6042;41.326;19.826;2023-04-25T01:02:21;14.80;99.90
11965;DHT22;6042;41.326;19.826;2023-04-25T01:04:51;14.80;99.90
11965;DHT22;6042;41.326;19.826;2023-04-25T01:07:19;14.80;99.90
11965;DHT22;6042;41.326;19.826;2023-04-25T01:09:48;14.80;99.90
11965;DHT22;6042;41.326;19.826;2023-04-25T01:12:16;14.70;99.90
11965;DHT22;6042;41.326;19.826;2023-04-25T01:14:45;14.80;99.90
11965;DHT22;6042;41.326;19.826;2023-04-25T01:17:13;14.80;99.90
11965;DHT22;6042;41.326;19.826;2023-04-25T01:19:42;14.80;99.90
11965;DHT22;6042;41.326;19.826;2023-04-25T01:22:13;14.80;99.90
11965;DHT22;6042;41.326;19.826;2023-04-25T01:24:41;14.60;99.90
11965;DHT22;6042;41.326;19.826;2023-04-25T01:27:11;14.60;99.90
11965;DHT22;6042;41.326;19.826;2023-04-25T01:29:39;14.60;99.90
11965;DHT22;6042;41.326;19.826;2023-04-25T01:32:08;14.70;99.90
11965;DHT22;6042;41.326;19.826;2023-04-25T01:34:38;14.70;99.90
11965;DHT22;6042;41.326;19.826;2023-04-25T01:37:07;14.70;99.90
11965;DHT22;6042;41.326;19.826;2023-04-25T01:39:36;14.70;99.90
11965;DHT22;6042;41.326;19.826;2023-04-25T01:42:05;14.70;99.90
11965;DHT22;6042;41.326;19.826;2023-04-25T01:44:33;14.60;99.90
11965;DHT22;6042;41.326;19.826;2023-04-25T01:47:02;14.60;99.90
11965;DHT22;6042;41.326;19.826;2023-04-25T01:49:31;14.40;99.90
11965;DHT22;6042;41.326;19.826;2023-04-25T01:51:59;14.30;99.90
11965;DHT22;6042;41.326;19.826;2023-04-25T01:54:28;14.30;99.90
11965;DHT22;6042;41.326;19.826;2023-04-25T01:56:58;14.30;99.90
11965;DHT22;6042;41.326;19.826;2023-04-25T01:59:28;14.20;99.90
11965;DHT22;6042;41.326;19.826;2023-04-25T02:02:06;14.20;99.90
11965;DHT22;6042;41.326;19.826;2023-04-25T02:04:36;14.30;99.90
11965;DHT22;6042;41.326;19.826;2023-04-25T02:07:05;14.30;99.90
11965;DHT22;6042;41.326;19.826;2023-04-25T02:09:43;14.50;99.90
11965;DHT22;6042;41.326;19.826;2023-04-25T02:12:14;14.60;99.90
11965;DHT22;6042;41.326;19.826;2023-04-25T02:15:15;14.70;99.90
11965;DHT22;6042;41.326;19.826;2023-04-25T02:17:51;14.60;99.90
11965;DHT22;6042;41.326;19.826;2023-04-25T02:20:21;14.70;99.90
11965;DHT22;6042;41.326;19.826;2023-04-25T02:22:50;14.80;99.90
11965;DHT22;6042;41.326;19.826;2023-04-25T02:25:20;14.90;99.90
11965;DHT22;6042;41.326;19.826;2023-04-25T02:27:50;14.90;99.90
11965;DHT22;6042;41.326;19.826;2023-04-25T02:30:18;14.90;99.90
11965;DHT22;6042;41.326;19.826;2023-04-25T02:32:47;14.90;99.90
11965;DHT22;6042;41.326;19.826;2023-04-25T02:35:15;14.80;99.90
11965;DHT22;6042;41.326;19.826;2023-04-25T02:37:44;14.80;99.90
11965;DHT22;6042;41.326;19.826;2023-04-25T02:40:13;14.80;99.90
11965;DHT22;6042;41.326;19.826;2023-04-25T02:42:41;14.90;99.90
11965;DHT22;6042;41.326;19.826;2023-04-25T02:45:11;15.00;99.90
11965;DHT22;6042;41.326;19.826;2023-04-25T02:47:40;15.10;99.90
11965;DHT22;6042;41.326;19.826;2023-04-25T02:50:08;15.00;99.90
11965;DHT22;6042;41.326;19.826;2023-04-25T02:52:39;15.10;99.90
11965;DHT22;6042;41.326;19.826;2023-04-25T02:55:13;15.20;99.90
11965;DHT22;6042;41.326;19.826;2023-04-25T02:57:43;15.20;99.90
11965;DHT22;6042;41.326;19.826;2023-04-25T03:00:19;15.00;99.90
11965;DHT22;6042;41.326;19.826;2023-04-25T03:02:48;15.00;99.90
11965;DHT22;6042;41.326;19.826;2023-04-25T03:05:17;15.10;99.90
11965;DHT22;6042;41.326;19.826;2023-04-25T03:07:46;15.00;99.90
11965;DHT22;6042;41.326;19.826;2023-04-25T03:10:16;15.00;99.90
11965;DHT22;6042;41.326;19.826;2023-04-25T03:12:44;14.90;99.90
11965;DHT22;6042;41.326;19.826;2023-04-25T03:15:12;14.90;99.90
11965;DHT22;6042;41.326;19.826;2023-04-25T03:17:43;14.90;99.90
11965;DHT22;6042;41.326;19.826;2023-04-25T03:20:12;14.80;99.90
11965;DHT22;6042;41.326;19.826;2023-04-25T03:22:40;14.90;99.90
11965;DHT22;6042;41.326;19.826;2023-04-25T03:25:09;14.80;99.90
11965;DHT22;6042;41.326;19.826;2023-04-25T03:27:37;14.70;99.90
11965;DHT22;6042;41.326;19.826;2023-04-25T03:30:06;14.70;99.90
11965;DHT22;6042;41.326;19.826;2023-04-25T03:32:37;14.60;99.90
11965;DHT22;6042;41.326;19.826;2023-04-25T03:35:08;14.60;99.90
11965;DHT22;6042;41.326;19.826;2023-04-25T03:37:36;14.60;99.90
11965;DHT22;6042;41.326;19.826;2023-04-25T03:40:06;14.40;99.90
11965;DHT22;6042;41.326;19.826;2023-04-25T03:43:10;14.40;99.90
11965;DHT22;6042;41.326;19.826;2023-04-25T03:45:44;14.40;99.90
11965;DHT22;6042;41.326;19.826;2023-04-25T03:48:13;14.50;99.90
11965;DHT22;6042;41.326;19.826;2023-04-25T03:50:43;14.50;99.90
11965;DHT22;6042;41.326;19.826;2023-04-25T03:53:12;14.50;99.90
11965;DHT22;6042;41.326;19.826;2023-04-25T03:56:00;14.50;99.90
11965;DHT22;6042;41.326;19.826;2023-04-25T03:58:32;14.50;99.90
11965;DHT22;6042;41.326;19.826;2023-04-25T04:01:00;14.40;99.90
11965;DHT22;6042;41.326;19.826;2023-04-25T04:03:31;14.50;99.90
11965;DHT22;6042;41.326;19.826;2023-04-25T04:06:01;14.50;99.90
11965;DHT22;6042;41.326;19.826;2023-04-25T04:08:32;14.50;99.90
11965;DHT22;6042;41.326;19.826;2023-04-25T04:11:00;14.50;99.90
11965;DHT22;6042;41.326;19.826;2023-04-25T04:13:29;14.60;99.90
11965;DHT22;6042;41.326;19.826;2023-04-25T04:15:57;14.60;99.90
11965;DHT22;6042;41.326;19.826;2023-04-25T04:18:26;14.60;99.90
11965;DHT22;6042;41.326;19.826;2023-04-25T04:20:56;14.40;99.90
11965;DHT22;6042;41.326;19.826;2023-04-25T04:23:29;14.40;99.90
11965;DHT22;6042;41.326;19.826;2023-04-25T04:25:59;14.40;99.90
11965;DHT22;6042;41.326;19.826;2023-04-25T04:28:27;14.60;99.90
11965;DHT22;6042;41.326;19.826;2023-04-25T04:31:17;14.60;99.90
11965;DHT22;6042;41.326;19.826;2023-04-25T04:33:47;14.40;99.90
11965;DHT22;6042;41.326;19.826;2023-04-25T04:36:16;14.50;99.90
11965;DHT22;6042;41.326;19.826;2023-04-25T04:38:51;14.60;99.90
11965;DHT22;6042;41.326;19.826;2023-04-25T04:41:31;14.70;99.90
11965;DHT22;6042;41.326;19.826;2023-04-25T04:44:13;14.80;99.90
11965;DHT22;6042;41.326;19.826;2023-04-25T04:46:48;14.90;99.90
11965;DHT22;6042;41.326;19.826;2023-04-25T04:49:33;14.90;99.90
11965;DHT22;6042;41.326;19.826;2023-04-25T04:52:31;15.00;99.90
11965;DHT22;6042;41.326;19.826;2023-04-25T04:55:23;15.00;99.90
11965;DHT22;6042;41.326;19.826;2023-04-25T04:58:21;15.00;99.90
11965;DHT22;6042;41.326;19.826;2023-04-25T05:01:24;15.20;99.90
11965;DHT22;6042;41.326;19.826;2023-04-25T05:04:22;15.30;99.90
11965;DHT22;6042;41.326;19.826;2023-04-25T05:07:05;15.40;99.90
11965;DHT22;6042;41.326;19.826;2023-04-25T05:09:52;15.50;99.90
11965;DHT22;6042;41.326;19.826;2023-04-25T05:12:41;15.50;99.90
11965;DHT22;6042;41.326;19.826;2023-04-25T05:15:31;15.40;99.90
11965;DHT22;6042;41.326;19.826;2023-04-25T05:18:18;15.50;99.90
11965;DHT22;6042;41.326;19.826;2023-04-25T05:21:08;15.60;99.90
11965;DHT22;6042;41.326;19.826;2023-04-25T05:24:07;15.70;99.90
11965;DHT22;6042;41.326;19.826;2023-04-25T05:26:44;15.70;99.90
11965;DHT22;6042;41.326;19.826;2023-04-25T05:29:21;15.80;99.90
11965;DHT22;6042;41.326;19.826;2023-04-25T05:32:12;15.80;99.90
11965;DHT22;6042;41.326;19.826;2023-04-25T05:34:41;15.90;99.90
11965;DHT22;6042;41.326;19.826;2023-04-25T05:37:19;16.00;99.90
11965;DHT22;6042;41.326;19.826;2023-04-25T05:40:08;15.80;99.90
11965;DHT22;6042;41.326;19.826;2023-04-25T05:42:53;15.70;99.90
11965;DHT22;6042;41.326;19.826;2023-04-25T05:45:47;15.80;99.90
11965;DHT22;6042;41.326;19.826;2023-04-25T05:48:34;15.90;99.90
11965;DHT22;6042;41.326;19.826;2023-04-25T05:51:21;16.00;99.90
11965;DHT22;6042;41.326;19.826;2023-04-25T05:54:07;16.20;99.90
11965;DHT22;6042;41.326;19.826;2023-04-25T05:56:35;16.30;99.90
11965;DHT22;6042;41.326;19.826;2023-04-25T05:59:03;16.30;99.90
11965;DHT22;6042;41.326;19.826;2023-04-25T06:01:35;16.20;99.90
11965;DHT22;6042;41.326;19.826;2023-04-25T06:04:03;16.10;99.90
11965;DHT22;6042;41.326;19.826;2023-04-25T06:06:33;16.10;99.90
11965;DHT22;6042;41.326;19.826;2023-04-25T06:09:01;16.30;99.90
11965;DHT22;6042;41.326;19.826;2023-04-25T06:11:31;16.40;99.90
11965;DHT22;6042;41.326;19.826;2023-04-25T06:14:00;16.40;99.90
11965;DHT22;6042;41.326;19.826;2023-04-25T06:16:32;16.40;99.90
11965;DHT22;6042;41.326;19.826;2023-04-25T06:19:03;16.40;99.90
11965;DHT22;6042;41.326;19.826;2023-04-25T06:21:31;16.40;99.90
11965;DHT22;6042;41.326;19.826;2023-04-25T06:24:00;16.30;99.90
11965;DHT22;6042;41.326;19.826;2023-04-25T06:26:28;16.40;99.90
11965;DHT22;6042;41.326;19.826;2023-04-25T06:28:57;16.70;99.90
11965;DHT22;6042;41.326;19.826;2023-04-25T06:31:25;16.80;99.90
11965;DHT22;6042;41.326;19.826;2023-04-25T06:33:55;17.00;99.90
11965;DHT22;6042;41.326;19.826;2023-04-25T06:36:26;17.10;99.90
11965;DHT22;6042;41.326;19.826;2023-04-25T06:39:02;17.30;99.90
11965;DHT22;6042;41.326;19.826;2023-04-25T06:41:32;17.60;99.90
11965;DHT22;6042;41.326;19.826;2023-04-25T06:44:05;17.80;99.90
11965;DHT22;6042;41.326;19.826;2023-04-25T06:46:48;17.70;99.90
11965;DHT22;6042;41.326;19.826;2023-04-25T06:49:18;17.60;99.90
11965;DHT22;6042;41.326;19.826;2023-04-25T06:51:48;17.50;99.90
11965;DHT22;6042;41.326;19.826;2023-04-25T06:54:16;17.30;99.90
11965;DHT22;6042;41.326;19.826;2023-04-25T06:56:55;17.50;99.90
11965;DHT22;6042;41.326;19.826;2023-04-25T06:59:26;17.60;99.90
11965;DHT22;6042;41.326;19.826;2023-04-25T07:01:54;17.60;99.90
11965;DHT22;6042;41.326;19.826;2023-04-25T07:04:25;17.60;99.90
11965;DHT22;6042;41.326;19.826;2023-04-25T07:06:57;17.60;99.90
11965;DHT22;6042;41.326;19.826;2023-04-25T07:09:36;17.50;99.90
11965;DHT22;6042;41.326;19.826;2023-04-25T07:12:05;17.50;99.90
11965;DHT22;6042;41.326;19.826;2023-04-25T07:14:34;17.60;99.90
11965;DHT22;6042;41.326;19.826;2023-04-25T07:17:03;17.50;99.90
11965;DHT22;6042;41.326;19.826;2023-04-25T07:19:34;17.50;99.90
11965;DHT22;6042;41.326;19.826;2023-04-25T07:22:06;17.70;99.90
11965;DHT22;6042;41.326;19.826;2023-04-25T07:24:37;17.80;99.90
11965;DHT22;6042;41.326;19.826;2023-04-25T07:27:07;17.70;99.90
11965;DHT22;6042;41.326;19.826;2023-04-25T07:29:55;17.70;99.90
11965;DHT22;6042;41.326;19.826;2023-04-25T07:32:24;17.70;99.90
11965;DHT22;6042;41.326;19.826;2023-04-25T07:34:53;17.80;99.90
11965;DHT22;6042;41.326;19.826;2023-04-25T07:37:23;17.90;99.90
11965;DHT22;6042;41.326;19.826;2023-04-25T07:40:18;18.20;99.90
11965;DHT22;6042;41.326;19.826;2023-04-25T07:42:53;18.30;99.90
11965;DHT22;6042;41.326;19.826;2023-04-25T07:45:28;18.50;99.90
11965;DHT22;6042;41.326;19.826;2023-04-25T07:47:58;18.60;99.90
11965;DHT22;6042;41.326;19.826;2023-04-25T07:50:29;18.50;99.90
11965;DHT22;6042;41.326;19.826;2023-04-25T07:52:59;18.60;99.90
11965;DHT22;6042;41.326;19.826;2023-04-25T07:55:33;18.60;99.90
11965;DHT22;6042;41.326;19.826;2023-04-25T07:58:07;18.70;99.90
11965;DHT22;6042;41.326;19.826;2023-04-25T08:00:39;18.80;99.90
11965;DHT22;6042;41.326;19.826;2023-04-25T08:03:28;19.00;99.90
11965;DHT22;6042;41.326;19.826;2023-04-25T08:05:58;18.60;99.90
11965;DHT22;6042;41.326;19.826;2023-04-25T08:08:33;18.60;99.90
11965;DHT22;6042;41.326;19.826;2023-04-25T08:11:03;18.80;99.90
11965;DHT22;6042;41.326;19.826;2023-04-25T08:13:31;18.90;99.90
11965;DHT22;6042;41.326;19.826;2023-04-25T08:16:00;18.80;99.90
11965;DHT22;6042;41.326;19.826;2023-04-25T08:18:28;18.90;99.90
11965;DHT22;6042;41.326;19.826;2023-04-25T08:20:58;19.30;99.90
11965;DHT22;6042;41.326;19.826;2023-04-25T08:23:26;19.10;99.90
11965;DHT22;6042;41.326;19.826;2023-04-25T08:26:05;18.90;99.90
11965;DHT22;6042;41.326;19.826;2023-04-25T08:28:37;18.70;99.90
11965;DHT22;6042;41.326;19.826;2023-04-25T08:31:05;18.40;99.90
11965;DHT22;6042;41.326;19.826;2023-04-25T08:33:44;18.30;99.90
11965;DHT22;6042;41.326;19.826;2023-04-25T08:36:27;18.10;99.90
11965;DHT22;6042;41.326;19.826;2023-04-25T08:39:17;18.00;99.90
11965;DHT22;6042;41.326;19.826;2023-04-25T08:42:07;18.20;99.90
11965;DHT22;6042;41.326;19.826;2023-04-25T08:44:37;18.70;99.90
11965;DHT22;6042;41.326;19.826;2023-04-25T08:47:06;19.10;99.90
11965;DHT22;6042;41.326;19.826;2023-04-25T08:49:45;19.10;99.90
11965;DHT22;6042;41.326;19.826;2023-04-25T08:52:21;19.10;99.90
11965;DHT22;6042;41.326;19.826;2023-04-25T08:54:53;19.10;99.90
11965;DHT22;6042;41.326;19.826;2023-04-25T08:57:24;19.10;99.90
11965;DHT22;6042;41.326;19.826;2023-04-25T08:59:53;19.30;99.90
11965;DHT22;6042;41.326;19.826;2023-04-25T09:02:24;19.40;99.90
11965;DHT22;6042;41.326;19.826;2023-04-25T09:04:54;19.20;99.90
11965;DHT22;6042;41.326;19.826;2023-04-25T09:07:23;19.40;99.90
11965;DHT22;6042;41.326;19.826;2023-04-25T09:09:54;19.80;99.90
11965;DHT22;6042;41.326;19.826;2023-04-25T09:12:24;19.50;99.90
11965;DHT22;6042;41.326;19.826;2023-04-25T09:15:05;19.40;99.90
11965;DHT22;6042;41.326;19.826;2023-04-25T09:17:55;19.60;99.90
11965;DHT22;6042;41.326;19.826;2023-04-25T09:20:28;19.60;99.90
11965;DHT22;6042;41.326;19.826;2023-04-25T09:23:02;19.90;99.90
11965;DHT22;6042;41.326;19.826;2023-04-25T09:25:34;19.70;99.90
11965;DHT22;6042;41.326;19.826;2023-04-25T09:28:09;19.50;99.90
11965;DHT22;6042;41.326;19.826;2023-04-25T09:30:38;19.70;99.90
11965;DHT22;6042;41.326;19.826;2023-04-25T09:33:17;19.90;99.90
11965;DHT22;6042;41.326;19.826;2023-04-25T09:35:48;20.00;99.90
11965;DHT22;6042;41.326;19.826;2023-04-25T09:38:30;20.40;99.90
11965;DHT22;6042;41.326;19.826;2023-04-25T09:41:07;20.50;99.90
11965;DHT22;6042;41.326;19.826;2023-04-25T09:43:46;20.20;99.90
11965;DHT22;6042;41.326;19.826;2023-04-25T09:46:18;20.00;99.90
11965;DHT22;6042;41.326;19.826;2023-04-25T09:48:52;19.50;99.90
11965;DHT22;6042;41.326;19.826;2023-04-25T09:51:28;18.30;99.90
11965;DHT22;6042;41.326;19.826;2023-04-25T09:53:59;17.60;99.90
11965;DHT22;6042;41.326;19.826;2023-04-25T09:56:41;17.20;99.90
11965;DHT22;6042;41.326;19.826;2023-04-25T09:59:11;16.80;99.90
11965;DHT22;6042;41.326;19.826;2023-04-25T10:01:40;16.20;99.90
11965;DHT22;6042;41.326;19.826;2023-04-25T10:04:24;15.90;99.90
11965;DHT22;6042;41.326;19.826;2023-04-25T10:06:59;15.80;99.90
11965;DHT22;6042;41.326;19.826;2023-04-25T10:09:29;15.70;99.90
11965;DHT22;6042;41.326;19.826;2023-04-25T10:12:02;15.60;99.90
11965;DHT22;6042;41.326;19.826;2023-04-25T10:14:33;15.50;99.90
11965;DHT22;6042;41.326;19.826;2023-04-25T10:17:01;15.60;99.90
11965;DHT22;6042;41.326;19.826;2023-04-25T10:19:30;15.50;99.90
11965;DHT22;6042;41.326;19.826;2023-04-25T10:22:03;15.70;99.90
11965;DHT22;6042;41.326;19.826;2023-04-25T10:24:32;16.00;99.90
11965;DHT22;6042;41.326;19.826;2023-04-25T10:27:04;16.30;99.90
11965;DHT22;6042;41.326;19.826;2023-04-25T10:29:35;16.60;99.90
11965;DHT22;6042;41.326;19.826;2023-04-25T10:32:04;17.00;99.90
11965;DHT22;6042;41.326;19.826;2023-04-25T10:34:40;17.30;99.90
11965;DHT22;6042;41.326;19.826;2023-04-25T10:37:09;17.50;99.90
11965;DHT22;6042;41.326;19.826;2023-04-25T10:39:39;17.70;99.90
11965;DHT22;6042;41.326;19.826;2023-04-25T10:42:08;17.80;99.90
11965;DHT22;6042;41.326;19.826;2023-04-25T10:44:38;17.90;99.90
11965;DHT22;6042;41.326;19.826;2023-04-25T10:47:08;18.10;99.90
11965;DHT22;6042;41.326;19.826;2023-04-25T10:49:38;18.20;99.90
11965;DHT22;6042;41.326;19.826;2023-04-25T10:52:24;18.10;99.90
11965;DHT22;6042;41.326;19.826;2023-04-25T10:54:54;18.30;99.90
11965;DHT22;6042;41.326;19.826;2023-04-25T10:57:27;18.40;99.90
11965;DHT22;6042;41.326;19.826;2023-04-25T11:00:06;18.60;99.90
11965;DHT22;6042;41.326;19.826;2023-04-25T11:02:43;18.70;99.90
11965;DHT22;6042;41.326;19.826;2023-04-25T11:05:26;18.60;99.90
11965;DHT22;6042;41.326;19.826;2023-04-25T11:07:58;18.90;99.90
11965;DHT22;6042;41.326;19.826;2023-04-25T11:10:34;19.30;99.90
11965;DHT22;6042;41.326;19.826;2023-04-25T11:13:03;19.70;99.90
11965;DHT22;6042;41.326;19.826;2023-04-25T11:15:33;19.80;99.90
11965;DHT22;6042;41.326;19.826;2023-04-25T11:18:02;19.90;99.90
11965;DHT22;6042;41.326;19.826;2023-04-25T11:20:30;20.10;99.90
11965;DHT22;6042;41.326;19.826;2023-04-25T11:22:59;20.10;99.90
11965;DHT22;6042;41.326;19.826;2023-04-25T11:25:32;19.90;99.90
11965;DHT22;6042;41.326;19.826;2023-04-25T11:28:04;20.00;99.90
11965;DHT22;6042;41.326;19.826;2023-04-25T11:30:34;19.80;99.90
11965;DHT22;6042;41.326;19.826;2023-04-25T11:33:03;19.60;99.90
11965;DHT22;6042;41.326;19.826;2023-04-25T11:35:32;19.40;99.90
11965;DHT22;6042;41.326;19.826;2023-04-25T11:38:01;19.60;99.90
11965;DHT22;6042;41.326;19.826;2023-04-25T11:40:30;19.90;99.90
11965;DHT22;6042;41.326;19.826;2023-04-25T11:43:00;20.10;99.90
11965;DHT22;6042;41.326;19.826;2023-04-25T11:45:28;20.10;99.90
11965;DHT22;6042;41.326;19.826;2023-04-25T11:48:01;20.00;99.90
11965;DHT22;6042;41.326;19.826;2023-04-25T11:50:30;20.20;99.90
11965;DHT22;6042;41.326;19.826;2023-04-25T11:52:59;20.10;99.90
11965;DHT22;6042;41.326;19.826;2023-04-25T11:55:30;20.00;99.90
11965;DHT22;6042;41.326;19.826;2023-04-25T11:58:00;20.10;99.90
11965;DHT22;6042;41.326;19.826;2023-04-25T12:00:29;20.20;99.90
11965;DHT22;6042;41.326;19.826;2023-04-25T12:02:58;20.30;99.90
11965;DHT22;6042;41.326;19.826;2023-04-25T12:05:30;20.50;99.90
11965;DHT22;6042;41.326;19.826;2023-04-25T12:08:11;21.00;99.90
11965;DHT22;6042;41.326;19.826;2023-04-25T12:10:42;21.70;99.90
11965;DHT22;6042;41.326;19.826;2023-04-25T12:13:21;22.00;98.40
11965;DHT22;6042;41.326;19.826;2023-04-25T12:15:50;22.20;96.90
11965;DHT22;6042;41.326;19.826;2023-04-25T12:18:19;22.20;97.20
11965;DHT22;6042;41.326;19.826;2023-04-25T12:20:50;21.80;96.90
11965;DHT22;6042;41.326;19.826;2023-04-25T12:23:25;21.30;98.00
11965;DHT22;6042;41.326;19.826;2023-04-25T12:25:55;21.10;97.20
11965;DHT22;6042;41.326;19.826;2023-04-25T12:28:25;20.90;97.40
11965;DHT22;6042;41.326;19.826;2023-04-25T12:30:56;20.80;97.90
11965;DHT22;6042;41.326;19.826;2023-04-25T12:33:26;20.80;97.90
11965;DHT22;6042;41.326;19.826;2023-04-25T12:35:57;21.30;97.50
11965;DHT22;6042;41.326;19.826;2023-04-25T12:38:27;21.70;96.60
11965;DHT22;6042;41.326;19.826;2023-04-25T12:40:58;22.00;95.80
11965;DHT22;6042;41.326;19.826;2023-04-25T12:43:27;21.90;95.70
11965;DHT22;6042;41.326;19.826;2023-04-25T12:45:56;21.70;95.50
11965;DHT22;6042;41.326;19.826;2023-04-25T12:48:26;21.70;95.50
11965;DHT22;6042;41.326;19.826;2023-04-25T12:50:55;21.80;96.30
11965;DHT22;6042;41.326;19.826;2023-04-25T12:53:24;22.20;95.90
11965;DHT22;6042;41.326;19.826;2023-04-25T12:55:52;22.40;95.00
11965;DHT22;6042;41.326;19.826;2023-04-25T12:58:22;22.40;95.30
11965;DHT22;6042;41.326;19.826;2023-04-25T13:00:50;22.40;95.20
11965;DHT22;6042;41.326;19.826;2023-04-25T13:03:19;22.40;95.50
11965;DHT22;6042;41.326;19.826;2023-04-25T13:05:49;22.30;95.80
11965;DHT22;6042;41.326;19.826;2023-04-25T13:08:20;21.90;96.00
11965;DHT22;6042;41.326;19.826;2023-04-25T13:10:49;21.40;95.90
11965;DHT22;6042;41.326;19.826;2023-04-25T13:13:17;21.00;96.60
11965;DHT22;6042;41.326;19.826;2023-04-25T13:15:45;21.00;96.50
11965;DHT22;6042;41.326;19.826;2023-04-25T13:18:15;20.50;97.10
11965;DHT22;6042;41.326;19.826;2023-04-25T13:20:43;20.50;97.30
11965;DHT22;6042;41.326;19.826;2023-04-25T13:23:13;20.30;97.40
11965;DHT22;6042;41.326;19.826;2023-04-25T13:25:42;20.40;97.50
11965;DHT22;6042;41.326;19.826;2023-04-25T13:28:12;20.30;97.10
11965;DHT22;6042;41.326;19.826;2023-04-25T13:30:40;20.20;97.20
11965;DHT22;6042;41.326;19.826;2023-04-25T13:33:08;20.50;96.90
11965;DHT22;6042;41.326;19.826;2023-04-25T13:35:37;20.90;96.50
11965;DHT22;6042;41.326;19.826;2023-04-25T13:38:06;21.40;95.80
11965;DHT22;6042;41.326;19.826;2023-04-25T13:40:35;21.50;95.00
11965;DHT22;6042;41.326;19.826;2023-04-25T13:43:05;21.40;95.00
11965;DHT22;6042;41.326;19.826;2023-04-25T13:45:34;21.20;95.10
11965;DHT22;6042;41.326;19.826;2023-04-25T13:48:02;21.00;95.30
11965;DHT22;6042;41.326;19.826;2023-04-25T13:50:31;20.50;96.00
11965;DHT22;6042;41.326;19.826;2023-04-25T13:52:59;20.20;96.60
11965;DHT22;6042;41.326;19.826;2023-04-25T13:55:28;20.00;97.10
11965;DHT22;6042;41.326;19.826;2023-04-25T13:57:57;19.90;97.10
11965;DHT22;6042;41.326;19.826;2023-04-25T14:00:27;19.60;97.20
11965;DHT22;6042;41.326;19.826;2023-04-25T14:02:55;19.50;97.80
11965;DHT22;6042;41.326;19.826;2023-04-25T14:05:24;19.50;98.00
11965;DHT22;6042;41.326;19.826;2023-04-25T14:07:53;19.70;97.70
11965;DHT22;6042;41.326;19.826;2023-04-25T14:10:21;19.80;97.30
11965;DHT22;6042;41.326;19.826;2023-04-25T14:12:49;19.80;96.90
11965;DHT22;6042;41.326;19.826;2023-04-25T14:15:18;19.70;97.00
11965;DHT22;6042;41.326;19.826;2023-04-25T14:17:48;19.80;96.60
11965;DHT22;6042;41.326;19.826;2023-04-25T14:20:17;19.60;96.60
11965;DHT22;6042;41.326;19.826;2023-04-25T14:22:47;19.80;96.40
11965;DHT22;6042;41.326;19.826;2023-04-25T14:25:15;19.90;96.60
11965;DHT22;6042;41.326;19.826;2023-04-25T14:27:44;20.00;96.70
11965;DHT22;6042;41.326;19.826;2023-04-25T14:30:17;20.40;96.20
11965;DHT22;6042;41.326;19.826;2023-04-25T14:32:48;20.80;95.70
11965;DHT22;6042;41.326;19.826;2023-04-25T14:35:17;21.20;95.30
11965;DHT22;6042;41.326;19.826;2023-04-25T14:37:45;21.70;94.90
11965;DHT22;6042;41.326;19.826;2023-04-25T14:40:14;22.30;93.90
11965;DHT22;6042;41.326;19.826;2023-04-25T14:42:43;23.60;92.50
11965;DHT22;6042;41.326;19.826;2023-04-25T14:45:12;25.00;90.60
11965;DHT22;6042;41.326;19.826;2023-04-25T14:47:40;25.70;88.60
11965;DHT22;6042;41.326;19.826;2023-04-25T14:50:10;25.30;87.60
11965;DHT22;6042;41.326;19.826;2023-04-25T14:52:39;24.50;88.70
11965;DHT22;6042;41.326;19.826;2023-04-25T14:55:08;24.30;90.00
11965;DHT22;6042;41.326;19.826;2023-04-25T14:57:36;25.20;89.00
11965;DHT22;6042;41.326;19.826;2023-04-25T15:00:07;26.90;85.50
11965;DHT22;6042;41.326;19.826;2023-04-25T15:02:36;28.40;81.60
11965;DHT22;6042;41.326;19.826;2023-04-25T15:05:05;29.30;76.30
11965;DHT22;6042;41.326;19.826;2023-04-25T15:07:36;29.70;73.90
11965;DHT22;6042;41.326;19.826;2023-04-25T15:10:07;28.30;72.00
11965;DHT22;6042;41.326;19.826;2023-04-25T15:12:40;28.00;73.00
11965;DHT22;6042;41.326;19.826;2023-04-25T15:15:09;28.70;71.50
11965;DHT22;6042;41.326;19.826;2023-04-25T15:17:44;28.90;70.10
11965;DHT22;6042;41.326;19.826;2023-04-25T15:20:13;30.00;68.30
11965;DHT22;6042;41.326;19.826;2023-04-25T15:22:44;30.70;63.80
11965;DHT22;6042;41.326;19.826;2023-04-25T15:25:12;30.20;62.00
11965;DHT22;6042;41.326;19.826;2023-04-25T15:27:41;29.70;62.20
11965;DHT22;6042;41.326;19.826;2023-04-25T15:30:12;28.30;64.00
11965;DHT22;6042;41.326;19.826;2023-04-25T15:32:42;27.10;65.90
11965;DHT22;6042;41.326;19.826;2023-04-25T15:35:11;26.40;67.50
11965;DHT22;6042;41.326;19.826;2023-04-25T15:37:40;25.70;69.90
11965;DHT22;6042;41.326;19.826;2023-04-25T15:40:13;24.90;70.90
11965;DHT22;6042;41.326;19.826;2023-04-25T15:42:43;25.00;70.40
11965;DHT22;6042;41.326;19.826;2023-04-25T15:45:14;25.60;70.50
11965;DHT22;6042;41.326;19.826;2023-04-25T15:47:44;26.40;68.70
11965;DHT22;6042;41.326;19.826;2023-04-25T15:50:13;27.60;67.40
11965;DHT22;6042;41.326;19.826;2023-04-25T15:52:42;28.00;66.50
11965;DHT22;6042;41.326;19.826;2023-04-25T15:55:12;28.20;65.20
11965;DHT22;6042;41.326;19.826;2023-04-25T15:57:40;28.50;63.80
11965;DHT22;6042;41.326;19.826;2023-04-25T16:00:10;28.30;64.30